createdAt,value
2018-12-09T00:03:04.546Z,5.90
2018-12-09T00:05:33.070Z,5.90
2018-12-09T00:08:01.294Z,5.90
2018-12-09T00:10:29.591Z,5.90
2018-12-09T00:12:57.829Z,5.90
2018-12-09T00:15:26.070Z,5.90
2018-12-09T00:18:00.575Z,5.90
2018-12-09T00:26:09.112Z,5.90
2018-12-09T00:28:40.815Z,5.90
2018-12-09T00:31:15.299Z,5.90
2018-12-09T00:33:50.185Z,5.90
2018-12-09T00:36:24.344Z,5.90
2018-12-09T00:38:58.322Z,5.80
2018-12-09T00:41:32.385Z,5.90
2018-12-09T00:44:03.927Z,5.80
2018-12-09T00:46:38.139Z,5.90
2018-12-09T00:49:06.451Z,5.80
2018-12-09T00:54:35.986Z,5.80
2018-12-09T00:57:10.482Z,5.90
2018-12-09T00:59:44.442Z,5.90
2018-12-09T01:02:16.684Z,5.90
2018-12-09T01:04:44.943Z,5.90
2018-12-09T01:07:13.242Z,5.90
2018-12-09T01:09:44.789Z,6.00
2018-12-09T01:12:19.298Z,6.00
2018-12-09T01:14:53.082Z,6.00
2018-12-09T01:17:27.122Z,6.10
2018-12-09T01:20:01.101Z,6.10
2018-12-09T01:22:35.240Z,6.20
2018-12-09T01:38:21.535Z,6.40
2018-12-09T01:43:28.215Z,6.50
2018-12-09T01:46:10.738Z,6.50
2018-12-09T01:48:38.972Z,6.50
2018-12-09T01:51:10.851Z,6.50
2018-12-09T02:01:55.941Z,6.70
2018-12-09T02:09:39.892Z,6.90
2018-12-09T02:12:12.235Z,6.90
2018-12-09T02:14:42.497Z,7.00
2018-12-09T02:17:12.149Z,7.00
2018-12-09T02:19:52.925Z,7.10
2018-12-09T02:27:35.171Z,7.30
2018-12-09T02:30:12.971Z,7.40
2018-12-09T02:32:46.828Z,7.40
2018-12-09T02:35:15.271Z,7.40
2018-12-09T02:37:49.253Z,7.50
2018-12-09T02:43:14.041Z,7.40
2018-12-09T02:45:48.178Z,7.40
2018-12-09T02:51:22.319Z,7.40
2018-12-09T02:59:15.492Z,7.50
2018-12-09T03:04:44.890Z,7.40
2018-12-09T03:07:17.257Z,7.40
2018-12-09T03:09:51.815Z,7.40
2018-12-09T03:12:25.430Z,7.40
2018-12-09T03:14:59.183Z,7.40
2018-12-09T03:17:28.921Z,7.40
2018-12-09T03:25:32.814Z,7.50
2018-12-09T03:33:14.030Z,7.50
2018-12-09T03:35:46.454Z,7.60
2018-12-09T03:40:52.301Z,7.50
2018-12-09T03:46:17.937Z,7.50
2018-12-09T03:48:46.230Z,7.40
2018-12-09T03:51:14.430Z,7.40
2018-12-09T03:53:42.758Z,7.40
2018-12-09T03:56:33.797Z,7.20
2018-12-09T03:59:05.450Z,7.20
2018-12-09T04:01:33.736Z,7.10
2018-12-09T04:04:02.073Z,7.10
2018-12-09T04:06:30.333Z,7.00
2018-12-09T04:08:58.638Z,6.80
2018-12-09T04:11:27.144Z,6.70
2018-12-09T04:13:55.373Z,6.50
2018-12-09T04:16:23.806Z,6.30
2018-12-09T04:18:52.096Z,6.30
2018-12-09T04:21:20.297Z,6.20
2018-12-09T04:23:48.629Z,6.10
2018-12-09T04:26:16.832Z,6.00
2018-12-09T04:28:45.037Z,5.90
2018-12-09T04:31:13.216Z,5.80
2018-12-09T04:33:41.422Z,5.80
2018-12-09T04:36:09.688Z,5.80
2018-12-09T04:38:37.906Z,5.80
2018-12-09T04:41:06.149Z,5.80
2018-12-09T04:43:34.384Z,5.70
2018-12-09T04:51:54.216Z,5.70
2018-12-09T04:54:28.292Z,5.70
2018-12-09T04:57:03.067Z,5.70
2018-12-09T05:02:09.810Z,5.70
2018-12-09T05:04:49.953Z,5.70
2018-12-09T05:07:18.753Z,5.70
2018-12-09T05:09:46.989Z,5.70
2018-12-09T05:12:15.196Z,5.70
2018-12-09T05:15:03.578Z,5.70
2018-12-09T05:20:05.714Z,5.60
2018-12-09T05:22:34.262Z,5.60
2018-12-09T05:28:07.068Z,5.70
2018-12-09T05:30:51.409Z,5.70
2018-12-09T05:36:17.154Z,5.80
2018-12-09T05:44:19.426Z,6.00
2018-12-09T05:46:47.655Z,6.00
2018-12-09T05:49:15.921Z,6.00
2018-12-09T05:51:44.121Z,6.10
2018-12-09T05:54:12.480Z,6.00
2018-12-09T05:56:40.896Z,6.00
2018-12-09T05:59:09.195Z,6.00
2018-12-09T06:01:37.453Z,6.00
2018-12-09T06:04:05.666Z,6.00
2018-12-09T06:06:33.953Z,6.00
2018-12-09T06:09:02.223Z,5.90
2018-12-09T06:11:30.438Z,6.00
2018-12-09T06:13:58.621Z,5.90
2018-12-09T06:16:26.842Z,6.00
2018-12-09T06:18:55.126Z,5.90
2018-12-09T06:21:23.426Z,6.00
2018-12-09T06:23:51.641Z,6.00
2018-12-09T06:26:19.949Z,5.90
2018-12-09T06:28:48.154Z,5.90
2018-12-09T06:31:16.371Z,6.00
2018-12-09T06:36:42.136Z,6.00
2018-12-09T06:42:09.860Z,6.10
2018-12-09T06:44:38.278Z,6.10
2018-12-09T06:47:06.711Z,6.10
2018-12-09T06:49:34.917Z,6.00
2018-12-09T06:52:03.230Z,6.00
2018-12-09T06:54:31.446Z,5.90
2018-12-09T06:56:59.765Z,5.90
2018-12-09T06:59:28.295Z,5.80
2018-12-09T07:01:56.545Z,5.70
2018-12-09T07:04:24.965Z,5.70
2018-12-09T07:06:53.365Z,5.70
2018-12-09T07:09:21.589Z,5.70
2018-12-09T07:11:50.154Z,5.60
2018-12-09T07:14:18.596Z,5.60
2018-12-09T07:16:46.860Z,5.50
2018-12-09T07:19:15.130Z,5.50
2018-12-09T07:21:43.373Z,5.50
2018-12-09T07:24:17.527Z,5.60
2018-12-09T07:26:45.878Z,5.60
2018-12-09T07:29:14.249Z,5.60
2018-12-09T07:34:40.489Z,5.60
2018-12-09T07:37:08.775Z,5.60
2018-12-09T07:42:34.062Z,5.60
2018-12-09T07:45:02.276Z,5.60
2018-12-09T07:47:30.514Z,5.60
2018-12-09T07:49:58.713Z,5.60
2018-12-09T07:52:39.084Z,5.70
2018-12-09T07:55:07.439Z,5.70
2018-12-09T07:57:35.715Z,5.80
2018-12-09T08:00:04.460Z,5.80
2018-12-09T08:08:32.777Z,5.90
2018-12-09T08:11:01.101Z,5.90
2018-12-09T08:13:29.289Z,6.00
2018-12-09T08:15:57.476Z,6.00
2018-12-09T08:18:25.811Z,6.00
2018-12-09T08:21:00.053Z,6.10
2018-12-09T08:26:05.325Z,6.20
2018-12-09T08:28:47.952Z,6.20
2018-12-09T08:31:22.250Z,6.30
2018-12-09T08:33:56.217Z,6.30
2018-12-09T08:39:02.042Z,6.40
2018-12-09T08:41:36.059Z,6.40
2018-12-09T08:54:20.857Z,6.50
2018-12-09T08:56:54.937Z,6.50
2018-12-09T09:02:02.791Z,6.50
2018-12-09T09:04:36.774Z,6.60
2018-12-09T09:07:10.947Z,6.60
2018-12-09T09:09:45.274Z,6.60
2018-12-09T09:14:53.418Z,6.70
2018-12-09T09:17:41.903Z,6.70
2018-12-09T09:22:50.095Z,6.70
2018-12-09T09:25:24.115Z,6.70
2018-12-09T09:28:00.385Z,6.70
2018-12-09T09:30:35.331Z,6.70
2018-12-09T09:33:10.351Z,6.70
2018-12-09T09:38:18.199Z,6.70
2018-12-09T09:43:24.302Z,6.60
2018-12-09T09:45:58.371Z,6.60
2018-12-09T09:48:32.563Z,6.70
2018-12-09T09:51:06.398Z,6.60
2018-12-09T09:53:40.249Z,6.60
2018-12-09T09:58:49.657Z,6.70
2018-12-09T10:01:23.949Z,6.60
2018-12-09T10:04:02.054Z,6.70
2018-12-09T10:06:42.572Z,6.70
2018-12-09T10:09:17.662Z,6.80
2018-12-09T10:11:52.043Z,6.80
2018-12-09T10:14:26.014Z,6.80
2018-12-09T10:16:59.890Z,6.90
2018-12-09T10:24:39.744Z,6.90
2018-12-09T10:27:18.135Z,6.80
2018-12-09T10:29:52.353Z,6.90
2018-12-09T10:35:03.097Z,6.80
2018-12-09T10:37:37.126Z,6.90
2018-12-09T10:40:13.696Z,6.90
2018-12-09T10:42:47.741Z,6.90
2018-12-09T10:45:25.459Z,6.90
2018-12-09T10:48:03.154Z,6.80
2018-12-09T10:50:37.212Z,6.80
2018-12-09T10:53:15.115Z,6.80
2018-12-09T10:55:55.381Z,6.80
2018-12-09T10:58:29.834Z,6.90
2018-12-09T11:01:06.523Z,6.90
2018-12-09T11:29:15.647Z,6.90
2018-12-09T11:31:49.664Z,7.00
2018-12-09T11:34:27.493Z,7.00
2018-12-09T11:39:35.230Z,7.00
2018-12-09T11:42:09.123Z,7.00
2018-12-09T11:52:21.745Z,7.00
2018-12-09T11:54:59.584Z,7.10
2018-12-09T12:00:09.811Z,7.10
2018-12-09T12:02:47.430Z,7.10
2018-12-09T12:07:55.350Z,7.00
2018-12-09T12:13:00.830Z,7.00
2018-12-09T12:15:34.906Z,6.90
2018-12-09T12:18:08.954Z,6.80
2018-12-09T12:20:49.925Z,6.80
2018-12-09T12:23:22.908Z,6.80
2018-12-09T12:25:57.444Z,6.70
2018-12-09T12:28:33.025Z,6.70
2018-12-09T12:31:12.355Z,6.70
2018-12-09T12:33:46.756Z,6.70
2018-12-09T12:36:22.975Z,6.70
2018-12-09T12:38:57.894Z,6.70
2018-12-09T12:41:37.303Z,6.60
2018-12-09T12:44:11.808Z,6.60
2018-12-09T12:46:49.842Z,6.60
2018-12-09T12:52:00.178Z,6.60
2018-12-09T12:54:34.971Z,6.60
2018-12-09T12:57:06.866Z,6.60
2018-12-09T12:59:41.579Z,6.60
2018-12-09T13:02:15.522Z,6.60
2018-12-09T13:04:49.583Z,6.60
2018-12-09T13:07:24.739Z,6.50
2018-12-09T13:09:59.529Z,6.60
2018-12-09T13:12:35.815Z,6.50
2018-12-09T13:15:11.748Z,6.60
2018-12-09T13:17:51.685Z,6.50
2018-12-09T13:20:25.599Z,6.60
2018-12-09T13:23:01.775Z,6.60
2018-12-09T13:28:05.302Z,7.60
2018-12-09T13:30:46.213Z,6.50
2018-12-09T13:33:20.516Z,6.30
2018-12-09T13:35:48.959Z,6.30
2018-12-09T13:38:33.242Z,6.30
2018-12-09T13:41:07.519Z,6.10
2018-12-09T13:56:42.877Z,6.10
2018-12-09T13:59:17.941Z,6.10
2018-12-09T14:01:52.422Z,6.10
2018-12-09T14:04:26.193Z,6.10
2018-12-09T14:07:00.049Z,6.10
2018-12-09T14:12:08.397Z,6.10
2018-12-09T14:17:34.421Z,6.00
2018-12-09T14:20:02.823Z,6.00
2018-12-09T14:22:31.062Z,6.00
2018-12-09T14:24:59.416Z,6.00
2018-12-09T14:27:27.713Z,6.00
2018-12-09T14:29:55.954Z,5.90
2018-12-09T14:32:24.201Z,5.90
2018-12-09T14:34:52.406Z,5.90
2018-12-09T14:37:20.830Z,5.90
2018-12-09T14:39:49.063Z,5.90
2018-12-09T14:42:17.310Z,5.90
2018-12-09T14:44:45.670Z,5.90
2018-12-09T14:47:13.986Z,5.90
2018-12-09T14:49:42.294Z,5.90
2018-12-09T14:52:10.522Z,5.90
2018-12-09T15:00:13.661Z,5.90
2018-12-09T15:05:20.720Z,5.90
2018-12-09T15:07:54.706Z,5.90
2018-12-09T15:10:26.364Z,6.00
2018-12-09T15:13:13.334Z,6.00
2018-12-09T15:18:19.322Z,6.00
2018-12-09T15:28:34.252Z,6.10
2018-12-09T15:31:10.789Z,6.10
2018-12-09T15:33:44.959Z,6.10
2018-12-09T15:36:19.000Z,6.10
2018-12-09T15:38:55.130Z,6.20
2018-12-09T15:41:33.049Z,6.20
2018-12-09T15:44:06.794Z,6.10
2018-12-09T15:49:17.237Z,6.10
2018-12-09T15:51:51.466Z,6.10
2018-12-09T15:59:32.273Z,6.10
2018-12-09T16:02:03.421Z,6.20
2018-12-09T16:04:35.393Z,6.10
2018-12-09T16:07:03.605Z,6.10
2018-12-09T16:09:31.880Z,6.10
2018-12-09T16:12:00.074Z,6.10
2018-12-09T16:14:35.413Z,6.00
2018-12-09T16:17:09.344Z,6.10
2018-12-09T16:27:39.894Z,6.00
2018-12-09T16:30:08.785Z,6.00
2018-12-09T16:32:36.985Z,5.90
2018-12-09T16:35:07.160Z,5.80
2018-12-09T16:37:41.500Z,5.80
2018-12-09T16:40:11.618Z,5.70
2018-12-09T16:50:43.394Z,5.60
2018-12-09T16:53:15.028Z,5.60
2018-12-09T16:58:20.295Z,5.60
2018-12-09T17:03:24.514Z,5.50
2018-12-09T17:05:56.731Z,5.50
2018-12-09T17:11:04.726Z,5.50
2018-12-09T17:16:09.437Z,5.50
2018-12-09T17:18:45.922Z,5.50
2018-12-09T17:21:20.159Z,5.50
2018-12-09T17:29:05.816Z,5.50
2018-12-09T17:34:11.722Z,5.50
2018-12-09T17:42:00.662Z,5.40
2018-12-09T17:44:34.514Z,5.40
2018-12-09T17:49:42.897Z,5.40
2018-12-09T17:52:16.727Z,5.40
2018-12-09T18:08:01.996Z,5.30
2018-12-09T18:10:36.070Z,5.30
2018-12-09T18:13:14.158Z,5.30
2018-12-09T18:15:52.082Z,5.30
2018-12-09T18:18:26.086Z,5.30
2018-12-09T18:21:00.645Z,5.30
2018-12-09T18:23:36.001Z,5.30
2018-12-09T18:26:10.731Z,5.30
2018-12-09T18:28:45.078Z,5.20
2018-12-09T18:36:25.889Z,5.20
2018-12-09T18:41:33.282Z,5.20
2018-12-09T18:46:40.302Z,5.20
2018-12-09T18:54:21.974Z,5.20
2018-12-09T18:56:56.905Z,5.10
2018-12-09T19:12:16.214Z,5.10
2018-12-09T19:17:24.847Z,5.00
2018-12-09T19:20:03.353Z,5.00
2018-12-09T19:25:06.880Z,5.00
2018-12-09T19:27:41.086Z,4.90
2018-12-09T19:32:49.140Z,4.80
2018-12-09T19:38:01.346Z,4.80
2018-12-09T19:43:09.282Z,4.80
2018-12-09T19:45:43.192Z,4.80
2018-12-09T19:53:21.398Z,4.90
2018-12-09T20:01:00.305Z,4.90
2018-12-09T20:03:28.496Z,4.90
2018-12-09T20:05:56.823Z,4.90
2018-12-09T20:11:30.573Z,4.80
2018-12-09T20:19:45.407Z,4.90
2018-12-09T20:28:26.445Z,4.90
2018-12-09T20:30:56.456Z,4.90
2018-12-09T20:33:30.623Z,4.90
2018-12-09T20:48:03.766Z,4.90
2018-12-09T20:50:37.836Z,4.90
2018-12-09T20:53:18.417Z,4.90
2018-12-09T20:55:48.935Z,4.90
2018-12-09T20:58:17.614Z,4.90
2018-12-09T21:00:45.887Z,4.90
2018-12-09T21:03:14.085Z,4.90
2018-12-09T21:08:39.680Z,4.90
2018-12-09T21:11:07.983Z,4.90
2018-12-09T21:13:49.033Z,4.90
2018-12-09T21:19:14.550Z,4.90
2018-12-09T21:21:42.990Z,4.90
2018-12-09T21:24:11.317Z,4.90
2018-12-09T21:26:49.890Z,4.90
2018-12-09T21:29:18.292Z,4.90
2018-12-09T21:31:46.634Z,4.90
2018-12-09T21:34:15.023Z,4.90
2018-12-09T21:39:29.676Z,5.00
2018-12-09T21:41:58.010Z,5.00
2018-12-09T21:44:46.935Z,5.00
2018-12-09T21:47:21.074Z,5.00
2018-12-09T21:50:01.403Z,5.00
2018-12-09T21:52:35.798Z,5.00
2018-12-09T21:55:09.697Z,5.00
2018-12-09T21:57:51.963Z,5.00
2018-12-09T22:05:44.871Z,5.10
2018-12-09T22:08:13.087Z,5.00
2018-12-09T22:10:41.284Z,5.00
2018-12-09T22:13:09.467Z,5.10
2018-12-09T22:15:37.666Z,5.10
2018-12-09T22:18:05.944Z,5.10
2018-12-09T22:20:34.115Z,5.10
2018-12-09T22:23:02.392Z,5.00
2018-12-09T22:25:30.600Z,5.10
2018-12-09T22:27:58.839Z,5.00
2018-12-09T22:30:27.131Z,5.00
2018-12-09T22:32:55.348Z,5.00
2018-12-09T22:35:23.645Z,5.00
2018-12-09T22:40:36.219Z,4.90
2018-12-09T22:48:18.463Z,4.90
2018-12-09T22:53:23.800Z,4.90
2018-12-09T22:55:55.163Z,4.90
2018-12-09T22:58:39.652Z,4.90
2018-12-09T23:01:13.362Z,4.90
2018-12-09T23:03:41.527Z,4.90
2018-12-09T23:06:13.795Z,4.90
2018-12-09T23:09:00.599Z,4.90
2018-12-09T23:11:28.918Z,4.90
2018-12-09T23:13:57.238Z,4.90
2018-12-09T23:16:25.417Z,4.90
2018-12-09T23:21:57.023Z,4.90
2018-12-09T23:24:30.752Z,4.90
2018-12-09T23:27:10.735Z,4.90
2018-12-09T23:29:42.757Z,4.90
2018-12-09T23:37:39.579Z,3.80
2018-12-09T23:40:08.503Z,3.30
2018-12-09T23:42:36.695Z,3.00
2018-12-09T23:45:05.571Z,2.90
2018-12-09T23:47:33.908Z,2.80
2018-12-09T23:50:02.172Z,2.80
2018-12-09T23:52:30.386Z,2.80
2018-12-09T23:54:58.698Z,2.90
2018-12-09T23:57:26.895Z,3.00
2018-12-09T23:59:55.112Z,3.10
